Time;durP1;ratioP1;P1;durP2;ratioP2;P2;SDS_P1;SDS_P2;PMS_P1;PMS_P2;Temp;Humidity;BMP_temperature;BMP_pressure;BME280_temperature;BME280_humidity;BME280_pressure;Samples;Min_cycle;Max_cycle;Signal;HPM_P1;HPM_P2
2022/12/27 00:01:53;;;;;;;9.07;2.60;;;3.20;99.90;;;;;;4950968;28;20026;-94
2022/12/27 00:04:19;;;;;;;9.43;2.35;;;3.20;99.90;;;;;;4955986;28;20132;-92
2022/12/27 00:06:44;;;;;;;17.27;2.90;;;3.20;99.90;;;;;;4951542;28;20046;-93
2022/12/27 00:09:10;;;;;;;10.63;3.20;;;3.20;99.90;;;;;;4953999;28;20030;-92
2022/12/27 00:11:35;;;;;;;12.98;3.03;;;3.20;99.90;;;;;;4955578;28;20083;-93
2022/12/27 00:14:03;;;;;;;14.98;3.55;;;3.20;99.90;;;;;;4977660;28;20054;-94
2022/12/27 00:16:30;;;;;;;9.60;2.78;;;3.20;99.90;;;;;;4988184;28;20027;-92
2022/12/27 00:18:55;;;;;;;10.75;2.92;;;3.10;99.90;;;;;;4949868;28;20031;-94
2022/12/27 00:21:22;;;;;;;8.60;2.72;;;3.10;99.90;;;;;;4962841;28;20026;-93
2022/12/27 00:23:50;;;;;;;14.88;3.17;;;3.00;99.90;;;;;;4961077;28;20482;-92
2022/12/27 00:26:25;;;;;;;9.00;3.10;;;3.00;99.90;;;;;;4976757;28;20047;-93
2022/12/27 00:28:51;;;;;;;9.70;2.33;;;3.00;99.90;;;;;;4964334;28;20026;-94
2022/12/27 00:31:18;;;;;;;6.97;2.63;;;3.00;99.90;;;;;;4959350;28;20141;-93
2022/12/27 00:33:45;;;;;;;11.60;2.45;;;2.90;99.90;;;;;;4965080;28;20035;-92
2022/12/27 00:36:15;;;;;;;14.68;3.42;;;2.90;99.90;;;;;;4961580;28;20102;-92
2022/12/27 00:38:40;;;;;;;7.68;2.75;;;2.90;99.90;;;;;;4976382;28;21371;-94
2022/12/27 00:41:06;;;;;;;10.65;2.83;;;2.90;99.90;;;;;;4962097;28;20049;-92
2022/12/27 00:43:32;;;;;;;9.07;2.72;;;2.90;99.90;;;;;;4954542;28;20512;-93
2022/12/27 00:45:58;;;;;;;10.65;3.17;;;3.00;99.90;;;;;;4968743;28;20046;-94
2022/12/27 00:48:23;;;;;;;10.02;3.40;;;2.90;99.90;;;;;;4977176;28;21270;-93
2022/12/27 00:50:49;;;;;;;10.75;4.45;;;2.90;99.90;;;;;;4965455;28;20034;-92
2022/12/27 00:53:15;;;;;;;7.13;2.58;;;3.00;99.90;;;;;;4963357;28;20487;-93
2022/12/27 00:55:44;;;;;;;13.55;2.97;;;3.00;99.90;;;;;;4962626;28;20041;-94
2022/12/27 00:58:10;;;;;;;13.93;3.78;;;3.00;99.90;;;;;;4960738;28;20062;-92
2022/12/27 01:00:36;;;;;;;6.80;2.70;;;3.00;99.90;;;;;;4964844;28;20037;-94
2022/12/27 01:03:02;;;;;;;7.13;2.83;;;3.00;99.90;;;;;;4978771;28;20173;-94
2022/12/27 01:05:27;;;;;;;11.65;3.38;;;3.00;99.90;;;;;;4993453;28;20023;-93
2022/12/27 01:07:53;;;;;;;9.88;3.15;;;3.10;99.90;;;;;;4980365;28;20035;-93
2022/12/27 01:10:19;;;;;;;11.10;3.13;;;3.00;99.90;;;;;;4966388;28;20034;-92
2022/12/27 01:12:44;;;;;;;14.60;3.42;;;3.10;99.90;;;;;;4964083;28;20038;-91
2022/12/27 01:15:10;;;;;;;6.53;2.92;;;3.10;99.90;;;;;;4979712;28;20046;-92
2022/12/27 01:17:36;;;;;;;9.65;3.67;;;3.10;99.90;;;;;;4979130;28;20053;-92
2022/12/27 01:20:02;;;;;;;13.45;3.22;;;3.10;99.90;;;;;;4979950;28;20034;-93
2022/12/27 01:22:28;;;;;;;11.32;3.47;;;3.10;99.90;;;;;;4950834;28;20033;-92
2022/12/27 01:24:53;;;;;;;7.97;3.15;;;3.10;99.90;;;;;;4960843;28;20498;-92
2022/12/27 01:27:19;;;;;;;12.90;3.67;;;3.10;99.90;;;;;;4946016;28;20461;-92
2022/12/27 01:29:45;;;;;;;11.85;3.50;;;3.20;99.90;;;;;;4960117;28;20565;-94
2022/12/27 01:32:11;;;;;;;9.95;2.95;;;3.10;99.90;;;;;;4964748;28;20030;-92
2022/12/27 01:34:36;;;;;;;9.88;3.40;;;3.20;99.90;;;;;;4960367;28;20030;-93
2022/12/27 01:37:02;;;;;;;14.65;3.63;;;3.20;99.90;;;;;;4993692;28;20372;-93
2022/12/27 01:39:27;;;;;;;13.95;3.10;;;3.20;99.90;;;;;;4977132;28;20375;-92
2022/12/27 01:44:42;;;;;;;12.90;3.63;;;3.20;99.90;;;;;;4967463;28;20030;-93
2022/12/27 01:47:11;;;;;;;11.73;4.18;;;3.20;99.90;;;;;;4963102;28;20054;-92
2022/12/27 01:49:38;;;;;;;9.38;3.03;;;3.20;99.90;;;;;;4999123;28;20042;-93
2022/12/27 01:52:05;;;;;;;10.95;3.65;;;3.20;99.90;;;;;;4982719;28;20045;-92
2022/12/27 01:54:30;;;;;;;12.25;3.53;;;3.30;99.90;;;;;;4962350;28;20037;-92
2022/12/27 01:56:57;;;;;;;14.05;3.08;;;3.30;99.90;;;;;;4976923;28;20034;-92
2022/12/27 01:59:23;;;;;;;9.57;3.10;;;3.30;99.90;;;;;;4977053;28;20062;-92
2022/12/27 02:01:49;;;;;;;19.65;3.42;;;3.40;99.90;;;;;;4951513;28;20475;-92
2022/12/27 02:04:22;;;;;;;10.07;3.35;;;3.40;99.90;;;;;;4941459;28;20155;-93
2022/12/27 02:06:49;;;;;;;9.75;2.58;;;3.60;99.90;;;;;;4952634;28;20065;-92
2022/12/27 02:09:34;;;;;;;9.77;2.60;;;3.60;99.90;;;;;;4982339;28;20155;-93
2022/12/27 02:12:01;;;;;;;9.23;2.92;;;3.70;99.90;;;;;;4959937;28;20030;-93
2022/12/27 02:14:43;;;;;;;11.95;3.15;;;3.70;99.90;;;;;;4982877;28;20041;-93
2022/12/27 02:17:29;;;;;;;12.57;2.85;;;3.80;99.90;;;;;;4951515;28;20115;-92
2022/12/27 02:19:57;;;;;;;11.60;2.55;;;3.90;99.90;;;;;;4953613;28;20526;-92
2022/12/27 02:26:25;;;;;;;11.93;3.30;;;4.00;99.90;;;;;;4937049;28;20045;-91
2022/12/27 02:29:03;;;;;;;12.38;3.42;;;4.00;99.90;;;;;;4983344;28;20038;-91
2022/12/27 02:31:53;;;;;;;14.68;4.22;;;3.90;99.90;;;;;;4980775;28;20145;-91
2022/12/27 02:34:33;;;;;;;15.93;5.78;;;3.90;99.90;;;;;;4977193;28;20030;-93
2022/12/27 02:37:05;;;;;;;21.95;8.68;;;3.80;99.90;;;;;;4971530;28;20047;-93
2022/12/27 02:39:34;;;;;;;13.38;5.47;;;3.70;99.90;;;;;;4973852;28;20022;-92
2022/12/27 02:53:02;;;;;;;10.65;3.67;;;3.60;99.90;;;;;;4976441;28;20073;-92
2022/12/27 02:54:18;;;;;;;11.00;2.28;;;3.60;99.90;;;;;;4968556;28;20037;-92
2022/12/27 02:57:09;;;;;;;13.38;2.28;;;3.70;99.90;;;;;;4964072;28;20513;-93
2022/12/27 03:03:20;;;;;;;10.35;2.30;;;3.90;99.90;;;;;;4963167;28;20601;-94
2022/12/27 03:06:38;;;;;;;7.82;2.65;;;3.90;99.90;;;;;;4963012;28;20678;-94
2022/12/27 03:15:55;;;;;;;11.83;4.20;;;3.90;99.90;;;;;;4972114;28;20046;-93
2022/12/27 03:18:45;;;;;;;10.02;3.42;;;4.00;99.90;;;;;;4998376;28;20281;-93
2022/12/27 03:27:08;;;;;;;15.05;3.67;;;3.90;99.90;;;;;;4961977;28;20115;-92
2022/12/27 03:35:11;;;;;;;12.55;3.42;;;3.70;99.90;;;;;;4970018;28;20161;-92
2022/12/27 03:43:38;;;;;;;18.45;3.22;;;3.60;99.90;;;;;;4983533;28;20037;-92
2022/12/27 03:49:25;;;;;;;9.73;3.13;;;3.50;99.90;;;;;;4984643;28;20176;-92
2022/12/27 03:52:05;;;;;;;8.07;2.75;;;3.40;99.90;;;;;;4990197;28;20530;-92
2022/12/27 03:54:35;;;;;;;8.98;2.55;;;3.40;99.90;;;;;;4980558;28;20026;-93
2022/12/27 03:57:07;;;;;;;13.30;2.95;;;3.30;99.90;;;;;;4968280;28;20155;-94
2022/12/27 03:59:33;;;;;;;;;;;3.40;99.90;;;;;;4983864;28;20058;-93
2022/12/27 04:02:00;;;;;;;12.55;3.20;;;3.30;99.90;;;;;;4968423;28;19964;-94
2022/12/27 04:04:25;;;;;;;15.32;2.78;;;3.30;99.90;;;;;;4985592;28;20172;-92
2022/12/27 04:06:51;;;;;;;7.13;2.78;;;3.30;99.90;;;;;;4971731;28;21285;-93
2022/12/27 04:36:38;;;;;;;9.02;2.20;;;3.70;99.90;;;;;;4981043;28;20029;-94
2022/12/27 04:39:03;;;;;;;12.00;2.97;;;3.70;99.90;;;;;;4976460;28;20387;-94
2022/12/27 04:55:10;;;;;;;12.27;3.05;;;3.80;99.90;;;;;;4980500;28;20041;-93
2022/12/27 04:57:36;;;;;;;8.50;2.33;;;3.80;99.90;;;;;;4968407;28;20691;-93
2022/12/27 05:02:47;;;;;;;9.02;2.15;;;3.70;99.90;;;;;;4981547;28;20300;-93
2022/12/27 05:05:12;;;;;;;9.32;2.65;;;3.70;99.90;;;;;;4981265;28;20109;-93
2022/12/27 05:15:53;;;;;;;16.63;2.70;;;3.50;99.90;;;;;;4981128;28;20180;-94
2022/12/27 05:18:19;;;;;;;10.85;2.22;;;3.50;99.90;;;;;;4982345;28;20140;-94
2022/12/27 05:20:44;;;;;;;15.18;3.13;;;3.50;99.90;;;;;;4984853;28;20190;-92
2022/12/27 05:25:55;;;;;;;11.85;2.10;;;3.50;99.90;;;;;;5000023;28;20033;-94
2022/12/27 05:28:21;;;;;;;13.00;2.95;;;3.50;99.90;;;;;;4983134;28;20035;-94
2022/12/27 05:30:47;;;;;;;11.80;2.17;;;3.60;99.90;;;;;;4972119;28;20053;-93
2022/12/27 05:33:12;;;;;;;7.60;1.80;;;3.60;99.90;;;;;;4971845;28;20369;-93
2022/12/27 05:35:38;;;;;;;12.38;2.50;;;3.60;99.90;;;;;;4984872;28;20496;-92
2022/12/27 05:38:04;;;;;;;15.00;1.95;;;3.60;99.90;;;;;;4977821;28;20034;-92
2022/12/27 05:40:29;;;;;;;14.52;2.30;;;3.60;99.90;;;;;;4985767;28;20073;-93
2022/12/27 05:42:57;;;;;;;12.07;2.03;;;3.60;99.90;;;;;;4980846;28;20030;-93
2022/12/27 05:45:23;;;;;;;10.48;1.98;;;3.70;99.90;;;;;;4971845;28;20038;-92
2022/12/27 05:47:48;;;;;;;5.60;1.40;;;3.60;99.90;;;;;;4975414;28;20651;-91
2022/12/27 05:50:14;;;;;;;9.38;1.85;;;3.60;99.90;;;;;;5013088;28;20045;-92
2022/12/27 05:52:39;;;;;;;6.50;1.50;;;3.60;99.90;;;;;;4999022;28;20027;-92
2022/12/27 05:55:06;;;;;;;9.90;1.27;;;3.60;99.90;;;;;;4998106;28;20434;-93
2022/12/27 05:57:32;;;;;;;8.52;1.52;;;3.60;99.90;;;;;;4998174;28;20045;-93
2022/12/27 05:59:58;;;;;;;9.07;1.90;;;3.60;99.90;;;;;;4981183;28;20022;-92
2022/12/27 06:02:23;;;;;;;7.03;1.80;;;3.60;99.90;;;;;;4998805;28;20057;-93
2022/12/27 06:04:49;;;;;;;9.38;1.83;;;3.50;99.90;;;;;;4999538;28;20031;-92
2022/12/27 06:07:15;;;;;;;8.05;2.00;;;3.50;99.90;;;;;;4998792;28;20030;-92
2022/12/27 06:09:41;;;;;;;12.20;2.65;;;3.50;99.90;;;;;;4982876;28;20041;-92
2022/12/27 06:12:07;;;;;;;10.18;2.95;;;3.50;99.90;;;;;;4980462;28;20026;-92
2022/12/27 06:14:32;;;;;;;17.02;3.30;;;3.50;99.90;;;;;;4977422;28;20030;-92
2022/12/27 06:16:58;;;;;;;8.60;2.30;;;3.50;99.90;;;;;;4993324;28;20027;-92
2022/12/27 06:19:23;;;;;;;7.30;2.50;;;3.50;99.90;;;;;;4976904;28;20031;-92
2022/12/27 06:21:49;;;;;;;10.90;2.75;;;3.50;99.90;;;;;;4997501;28;20045;-91
2022/12/27 06:24:15;;;;;;;11.18;2.28;;;3.50;99.90;;;;;;5019398;28;20379;-92
2022/12/27 06:26:41;;;;;;;9.35;2.92;;;3.50;99.90;;;;;;4980227;28;20440;-92
2022/12/27 06:29:10;;;;;;;13.65;2.90;;;3.50;99.90;;;;;;4996248;28;20026;-90
2022/12/27 06:31:36;;;;;;;13.10;2.33;;;3.50;99.90;;;;;;4976450;28;20033;-91
2022/12/27 06:34:01;;;;;;;10.15;2.50;;;3.50;99.90;;;;;;4991124;28;20056;-91
2022/12/27 06:36:29;;;;;;;8.57;1.98;;;3.40;99.90;;;;;;4992699;28;20031;-91
2022/12/27 06:38:55;;;;;;;10.95;2.30;;;3.40;99.90;;;;;;4980802;28;20033;-90
2022/12/27 06:41:21;;;;;;;11.45;2.20;;;3.40;99.90;;;;;;4995630;28;20030;-91
2022/12/27 06:43:47;;;;;;;11.48;2.30;;;3.40;99.90;;;;;;4980041;28;20022;-90
2022/12/27 06:46:17;;;;;;;7.53;2.10;;;3.40;99.90;;;;;;4978974;28;20041;-91
2022/12/27 06:48:44;;;;;;;10.65;1.60;;;3.40;99.90;;;;;;4980461;28;20384;-91
2022/12/27 06:51:11;;;;;;;9.93;1.92;;;3.40;99.90;;;;;;5002533;28;20113;-91
2022/12/27 06:53:37;;;;;;;10.60;1.70;;;3.40;99.90;;;;;;4999615;28;20033;-92
2022/12/27 06:56:08;;;;;;;6.13;1.35;;;3.40;99.90;;;;;;4995504;28;20034;-92
2022/12/27 06:58:34;;;;;;;8.45;1.90;;;3.40;99.90;;;;;;5011465;28;20109;-92
2022/12/27 07:01:07;;;;;;;6.88;2.13;;;3.40;99.90;;;;;;4980505;28;20054;-93
2022/12/27 07:03:32;;;;;;;9.07;2.15;;;3.40;99.90;;;;;;4996339;28;20491;-92
2022/12/27 07:06:02;;;;;;;6.57;1.80;;;3.40;99.90;;;;;;4979612;28;20037;-91
2022/12/27 07:08:27;;;;;;;13.20;2.47;;;3.40;99.90;;;;;;4980666;28;20524;-91
2022/12/27 07:10:57;;;;;;;7.82;2.22;;;3.40;99.90;;;;;;4985919;28;20026;-92
2022/12/27 07:13:23;;;;;;;10.63;2.92;;;3.30;99.90;;;;;;4991780;28;20027;-92
2022/12/27 07:15:48;;;;;;;10.40;2.72;;;3.30;99.90;;;;;;4990784;28;20554;-92
2022/12/27 07:18:14;;;;;;;12.25;3.58;;;3.30;99.90;;;;;;4974381;28;20027;-91
2022/12/27 07:20:39;;;;;;;17.05;3.67;;;3.30;99.90;;;;;;4981471;28;20054;-90
2022/12/27 07:23:05;;;;;;;9.10;4.78;;;3.40;99.90;;;;;;4972548;28;20066;-91
2022/12/27 07:25:31;;;;;;;12.20;4.10;;;3.40;99.90;;;;;;4982442;28;20022;-92
2022/12/27 07:27:56;;;;;;;12.65;4.60;;;3.30;99.90;;;;;;4993869;28;20049;-94
2022/12/27 07:30:22;;;;;;;13.10;4.38;;;3.20;99.90;;;;;;4998801;28;20027;-93
2022/12/27 07:32:47;;;;;;;11.73;4.25;;;3.30;99.90;;;;;;4991870;28;20067;-92
2022/12/27 07:35:13;;;;;;;14.68;4.32;;;3.20;99.90;;;;;;4977204;28;20034;-91
2022/12/27 07:37:38;;;;;;;10.45;4.32;;;3.20;99.90;;;;;;4972400;28;20026;-92
2022/12/27 07:40:05;;;;;;;16.80;5.07;;;3.20;99.90;;;;;;4988220;28;20034;-92
2022/12/27 07:42:30;;;;;;;10.88;4.85;;;3.20;99.90;;;;;;4975472;28;20041;-93
2022/12/27 07:44:56;;;;;;;9.93;4.45;;;3.20;99.90;;;;;;4978183;28;20049;-91
2022/12/27 07:47:21;;;;;;;15.15;4.65;;;3.20;99.90;;;;;;4991636;28;20506;-92
2022/12/27 07:49:47;;;;;;;14.52;5.57;;;3.20;99.90;;;;;;4974322;28;20901;-93
2022/12/27 07:52:12;;;;;;;12.07;4.68;;;3.20;99.90;;;;;;4993945;28;20062;-92
2022/12/27 07:54:38;;;;;;;21.13;5.43;;;3.20;99.90;;;;;;4991914;28;20066;-92
2022/12/27 07:57:03;;;;;;;14.63;4.53;;;3.20;99.90;;;;;;4973816;28;20030;-91
2022/12/27 07:59:29;;;;;;;17.33;5.38;;;3.20;99.90;;;;;;4988466;28;20390;-92
2022/12/27 08:02:03;;;;;;;17.00;5.55;;;3.20;99.90;;;;;;4976610;28;20639;-92
2022/12/27 08:04:30;;;;;;;16.38;5.30;;;3.20;99.90;;;;;;4974325;28;20029;-93
2022/12/27 08:07:02;;;;;;;19.63;5.78;;;3.20;99.90;;;;;;4989810;28;20046;-92
2022/12/27 08:09:31;;;;;;;20.45;6.55;;;3.20;99.90;;;;;;4975557;28;20026;-93
2022/12/27 08:11:56;;;;;;;13.02;5.10;;;3.20;99.90;;;;;;5006549;28;20026;-92
2022/12/27 08:14:22;;;;;;;20.17;4.95;;;3.20;99.90;;;;;;4973957;28;20029;-91
2022/12/27 08:16:47;;;;;;;14.68;4.97;;;3.20;99.90;;;;;;4972814;28;20045;-92
2022/12/27 08:19:13;;;;;;;19.95;5.63;;;3.20;99.90;;;;;;4973822;28;20034;-91
2022/12/27 08:21:38;;;;;;;18.85;4.68;;;3.20;99.90;;;;;;4969293;28;20121;-92
2022/12/27 08:24:04;;;;;;;17.13;5.55;;;3.20;99.90;;;;;;5009634;28;20113;-92
2022/12/27 08:26:30;;;;;;;14.40;5.47;;;3.20;99.90;;;;;;4974858;28;20291;-92
2022/12/27 08:28:55;;;;;;;10.45;3.95;;;3.20;99.90;;;;;;4988442;28;20018;-93
2022/12/27 08:31:21;;;;;;;18.45;5.15;;;3.20;99.90;;;;;;4991639;28;20040;-92
2022/12/27 08:33:46;;;;;;;10.48;4.57;;;3.30;99.90;;;;;;4988377;28;20022;-91
2022/12/27 08:36:12;;;;;;;13.48;5.13;;;3.30;99.90;;;;;;4970757;28;20473;-91
2022/12/27 08:38:38;;;;;;;13.85;5.25;;;3.30;99.90;;;;;;4970517;28;20037;-91
2022/12/27 08:41:04;;;;;;;14.98;3.95;;;3.30;99.90;;;;;;4989127;28;20401;-92
2022/12/27 08:43:29;;;;;;;16.58;5.13;;;3.30;99.90;;;;;;4974544;28;20030;-92
2022/12/27 08:46:03;;;;;;;15.98;4.07;;;3.30;99.90;;;;;;4978764;28;20031;-92
2022/12/27 08:48:31;;;;;;;13.38;4.40;;;3.30;99.90;;;;;;4987521;28;20053;-90
2022/12/27 08:50:57;;;;;;;14.00;4.15;;;3.30;99.90;;;;;;4974127;28;20030;-93
2022/12/27 08:53:22;;;;;;;17.80;4.35;;;3.40;99.90;;;;;;4991535;28;20041;-92
2022/12/27 08:55:48;;;;;;;9.38;3.97;;;3.40;99.90;;;;;;4991116;28;20026;-93
2022/12/27 08:58:14;;;;;;;15.02;5.00;;;3.40;99.90;;;;;;4989113;28;20046;-92
2022/12/27 09:00:40;;;;;;;18.13;4.80;;;3.50;99.90;;;;;;4967441;28;20062;-92
2022/12/27 09:03:05;;;;;;;11.85;4.85;;;3.50;99.90;;;;;;4974115;28;20034;-92
2022/12/27 09:05:31;;;;;;;13.60;4.72;;;3.50;99.90;;;;;;4977911;28;20034;-93
2022/12/27 09:07:57;;;;;;;14.65;5.10;;;3.60;99.90;;;;;;4981775;28;20066;-91
2022/12/27 09:10:23;;;;;;;25.20;5.60;;;3.60;99.90;;;;;;4993621;28;20026;-92
2022/12/27 09:12:49;;;;;;;11.98;4.93;;;3.70;99.90;;;;;;4980717;28;20118;-94
2022/12/27 09:15:15;;;;;;;17.27;4.68;;;3.60;99.90;;;;;;4993019;28;20061;-93
2022/12/27 09:17:41;;;;;;;10.00;5.28;;;3.70;99.90;;;;;;5007292;28;20088;-94
2022/12/27 09:20:07;;;;;;;15.43;4.75;;;3.70;99.90;;;;;;4976787;28;20034;-94
2022/12/27 09:22:33;;;;;;;18.60;6.15;;;3.80;99.90;;;;;;4990970;28;20072;-93
2022/12/27 09:24:58;;;;;;;12.88;3.95;;;3.80;99.90;;;;;;5014387;28;20029;-94
2022/12/27 09:27:24;;;;;;;15.77;4.55;;;3.80;99.90;;;;;;4989747;28;20041;-94
2022/12/27 09:29:50;;;;;;;10.80;4.07;;;3.90;99.90;;;;;;4992535;28;20530;-93
2022/12/27 09:32:15;;;;;;;13.90;4.65;;;3.90;99.90;;;;;;5002697;28;20402;-93
2022/12/27 09:34:41;;;;;;;13.93;4.82;;;4.00;99.90;;;;;;5009092;28;20092;-94
2022/12/27 09:37:06;;;;;;;13.55;4.55;;;4.00;99.90;;;;;;5001803;28;20502;-94
2022/12/27 09:39:31;;;;;;;14.68;5.10;;;4.10;99.90;;;;;;4994653;28;20038;-93
2022/12/27 09:42:16;;;;;;;15.98;5.38;;;4.10;99.90;;;;;;4996022;28;20014;-95
2022/12/27 09:44:49;;;;;;;14.00;6.05;;;4.10;99.90;;;;;;4995708;28;20023;-94
2022/12/27 09:47:23;;;;;;;14.90;5.82;;;4.20;99.90;;;;;;4997253;28;20033;-92
2022/12/27 09:49:54;;;;;;;16.27;6.00;;;4.20;99.90;;;;;;4979633;28;20046;-92
2022/12/27 09:52:36;;;;;;;15.20;6.20;;;4.30;99.90;;;;;;4975977;28;20110;-92
2022/12/27 09:55:05;;;;;;;16.77;6.33;;;4.30;99.90;;;;;;4995699;28;20022;-92
2022/12/27 09:57:37;;;;;;;18.45;7.75;;;4.30;99.90;;;;;;4999648;28;20386;-92
2022/12/27 10:00:06;;;;;;;14.95;6.68;;;4.40;99.90;;;;;;4998919;28;20026;-93
2022/12/27 10:02:33;;;;;;;18.85;8.48;;;4.50;99.90;;;;;;4994512;28;20031;-92
2022/12/27 10:04:59;;;;;;;19.50;8.80;;;4.50;99.90;;;;;;4982851;28;20176;-92
2022/12/27 10:07:38;;;;;;;19.58;8.75;;;4.50;99.90;;;;;;4977528;28;20466;-92
2022/12/27 10:10:32;;;;;;;18.63;7.90;;;4.60;99.90;;;;;;4997549;28;20030;-92
2022/12/27 10:13:37;;;;;;;22.13;9.35;;;4.60;99.90;;;;;;4986585;28;20523;-94
2022/12/27 10:16:19;;;;;;;16.98;7.60;;;4.60;99.90;;;;;;4993416;28;20030;-92
2022/12/27 10:19:12;;;;;;;19.67;7.38;;;4.60;99.90;;;;;;4997223;28;20031;-93
2022/12/27 10:21:52;;;;;;;21.13;8.52;;;4.70;99.90;;;;;;4977211;28;20026;-93
2022/12/27 10:24:38;;;;;;;17.75;7.32;;;4.70;99.90;;;;;;4984129;28;20022;-93
2022/12/27 10:27:14;;;;;;;19.27;7.90;;;4.80;99.90;;;;;;4985425;28;20088;-91
2022/12/27 10:29:41;;;;;;;17.48;7.45;;;4.80;99.90;;;;;;4986848;28;20022;-91
2022/12/27 10:32:12;;;;;;;22.60;8.07;;;4.90;99.90;;;;;;4987166;28;20533;-91
2022/12/27 10:34:38;;;;;;;16.23;8.07;;;4.90;99.90;;;;;;4987926;28;20022;-92
2022/12/27 10:37:03;;;;;;;16.88;8.55;;;5.00;99.90;;;;;;4970344;28;20034;-91
2022/12/27 10:39:33;;;;;;;13.95;7.90;;;5.00;99.90;;;;;;4979153;28;20026;-92
2022/12/27 10:42:29;;;;;;;19.67;8.00;;;5.10;99.90;;;;;;4979395;28;20081;-91
2022/12/27 10:45:24;;;;;;;14.73;7.60;;;5.10;99.90;;;;;;4985719;28;20034;-91
2022/12/27 10:47:52;;;;;;;19.27;7.63;;;5.20;99.90;;;;;;4933776;28;1142545;-92
2022/12/27 10:50:23;;;;;;;16.60;7.25;;;5.10;99.90;;;;;;5006327;28;20037;-92
2022/12/27 10:52:49;;;;;;;12.40;6.63;;;5.20;99.90;;;;;;4985578;28;20123;-92
2022/12/27 10:55:34;;;;;;;16.25;5.90;;;5.20;99.90;;;;;;4985925;28;20117;-93
2022/12/27 10:58:30;;;;;;;11.27;5.70;;;5.30;99.90;;;;;;4987069;28;20046;-93
2022/12/27 11:00:56;;;;;;;9.40;4.93;;;5.40;99.90;;;;;;4990251;28;20031;-92
2022/12/27 11:03:22;;;;;;;11.07;5.97;;;5.50;99.90;;;;;;4987370;28;20041;-92
2022/12/27 11:06:06;;;;;;;11.80;5.25;;;5.60;99.90;;;;;;4987246;28;20145;-93
2022/12/27 11:08:31;;;;;;;13.18;5.10;;;5.70;99.90;;;;;;4991089;28;20386;-92
2022/12/27 11:11:13;;;;;;;8.80;4.40;;;5.70;99.90;;;;;;4984262;28;20050;-92
2022/12/27 11:13:41;;;;;;;11.88;4.63;;;5.80;99.90;;;;;;4984431;28;20042;-93
2022/12/27 11:16:15;;;;;;;10.38;4.40;;;5.90;99.90;;;;;;5009245;28;20514;-93
2022/12/27 11:18:46;;;;;;;13.05;3.90;;;6.00;99.90;;;;;;4989051;28;20130;-91
2022/12/27 11:21:13;;;;;;;9.75;4.05;;;6.20;99.90;;;;;;4986055;28;20042;-91
2022/12/27 11:23:52;;;;;;;11.68;3.83;;;6.20;99.90;;;;;;4984027;28;20487;-92
2022/12/27 11:26:38;;;;;;;15.45;3.70;;;6.30;99.90;;;;;;4998420;28;20034;-93
2022/12/27 11:29:04;;;;;;;13.48;3.65;;;6.40;99.90;;;;;;5003882;28;20026;-93
2022/12/27 11:31:46;;;;;;;13.57;3.35;;;6.30;99.90;;;;;;4995020;28;20030;-91
2022/12/27 11:34:20;;;;;;;12.93;4.28;;;6.30;99.90;;;;;;4983891;28;20022;-93
2022/12/27 11:36:49;;;;;;;11.05;3.72;;;6.30;99.90;;;;;;4983740;28;20510;-87
2022/12/27 11:39:39;;;;;;;6.45;2.60;;;6.30;99.90;;;;;;4984095;28;20109;-94
2022/12/27 11:42:12;;;;;;;13.90;3.60;;;6.30;99.90;;;;;;4984827;28;20036;-93
2022/12/27 11:44:44;;;;;;;12.45;3.50;;;6.40;99.90;;;;;;5001676;28;20042;-93
2022/12/27 11:47:44;;;;;;;13.47;3.50;;;6.40;99.90;;;;;;4991822;28;20061;-94
2022/12/27 11:50:38;;;;;;;7.70;2.38;;;6.50;99.90;;;;;;4987076;28;20038;-94
2022/12/27 11:53:39;;;;;;;12.00;2.75;;;6.50;99.90;;;;;;4970572;28;20077;-92
2022/12/27 11:56:10;;;;;;;9.30;3.25;;;6.60;99.90;;;;;;4985104;28;20483;-94
2022/12/27 11:58:57;;;;;;;10.95;2.97;;;6.50;99.90;;;;;;4999853;28;20026;-94
2022/12/27 12:01:35;;;;;;;11.07;3.05;;;6.60;99.90;;;;;;4975242;28;20045;-94
2022/12/27 12:04:01;;;;;;;13.88;2.53;;;6.50;99.90;;;;;;5003947;28;20077;-93
2022/12/27 12:07:07;;;;;;;11.15;2.45;;;6.60;99.90;;;;;;4994539;28;20039;-94
2022/12/27 12:10:04;;;;;;;6.10;2.92;;;6.60;99.90;;;;;;4997350;28;20053;-93
2022/12/27 12:13:06;;;;;;;13.02;2.60;;;6.70;99.90;;;;;;4992857;28;20041;-93
2022/12/27 12:15:53;;;;;;;7.28;2.67;;;6.70;99.90;;;;;;5009636;28;20037;-92
2022/12/27 12:18:41;;;;;;;8.50;2.40;;;6.80;99.90;;;;;;4985642;28;20030;-93
2022/12/27 12:21:34;;;;;;;9.00;3.13;;;6.90;99.90;;;;;;4985640;28;20049;-92
2022/12/27 12:24:18;;;;;;;;;;;6.90;99.90;;;;;;4978069;28;20026;-93
2022/12/27 12:27:08;;;;;;;6.95;2.30;;;7.00;99.90;;;;;;5025930;28;20004;-93
2022/12/27 12:30:06;;;;;;;9.60;3.28;;;7.00;99.90;;;;;;4991774;28;20022;-93
2022/12/27 12:32:57;;;;;;;9.13;2.83;;;7.00;99.90;;;;;;4972658;28;20407;-93
2022/12/27 12:35:53;;;;;;;16.02;3.05;;;7.10;99.90;;;;;;5019058;28;20116;-92
2022/12/27 12:38:37;;;;;;;9.90;2.20;;;7.20;99.90;;;;;;5009484;28;20036;-92
2022/12/27 12:41:10;;;;;;;7.78;2.45;;;7.20;99.90;;;;;;4997064;28;20018;-93
2022/12/27 12:43:55;;;;;;;10.65;3.05;;;7.10;99.90;;;;;;5015058;28;20154;-92
2022/12/27 12:46:41;;;;;;;11.05;2.60;;;7.10;99.90;;;;;;5000018;28;20061;-94
2022/12/27 12:49:12;;;;;;;6.78;2.60;;;7.00;99.90;;;;;;4991933;28;20058;-93
2022/12/27 12:52:21;;;;;;;8.63;2.60;;;6.90;99.90;;;;;;4997929;28;21586;-94
2022/12/27 12:54:49;;;;;;;8.55;2.13;;;6.90;99.90;;;;;;4993374;28;20050;-93
2022/12/27 12:57:36;;;;;;;11.57;2.92;;;7.00;99.90;;;;;;5006851;28;20082;-93
2022/12/27 13:00:27;;;;;;;8.85;2.70;;;7.20;99.90;;;;;;4991652;28;20030;-93
2022/12/27 13:03:37;;;;;;;6.10;2.47;;;7.40;99.90;;;;;;4986673;28;20117;-92
2022/12/27 13:06:16;;;;;;;11.88;2.70;;;7.40;99.90;;;;;;4981174;28;20026;-94
2022/12/27 13:08:58;;;;;;;11.57;2.80;;;7.50;99.90;;;;;;4965585;28;20054;-94
2022/12/27 13:11:52;;;;;;;9.93;2.33;;;7.60;99.90;;;;;;4968178;28;20045;-95
2022/12/27 13:14:43;;;;;;;11.35;2.67;;;7.60;99.90;;;;;;4980071;28;20549;-93
2022/12/27 13:17:22;;;;;;;7.28;2.25;;;7.80;99.90;;;;;;4973897;28;20090;-93
2022/12/27 13:20:01;;;;;;;7.88;2.15;;;7.80;99.90;;;;;;4984619;28;20065;-93
2022/12/27 13:22:36;;;;;;;8.15;2.75;;;7.90;99.90;;;;;;4983078;28;20026;-94
2022/12/27 13:25:32;;;;;;;7.72;2.40;;;8.00;99.90;;;;;;4988167;28;20148;-94
2022/12/27 13:28:23;;;;;;;7.53;2.70;;;8.10;99.90;;;;;;4996744;28;20125;-94
2022/12/27 13:31:08;;;;;;;9.68;2.53;;;8.00;99.90;;;;;;4976983;28;20026;-94
2022/12/27 13:33:57;;;;;;;7.25;1.98;;;7.90;99.90;;;;;;4979115;28;20038;-95
2022/12/27 13:36:55;;;;;;;8.77;1.88;;;7.80;99.90;;;;;;5010647;28;20192;-95
2022/12/27 13:40:23;;;;;;;8.93;2.53;;;7.60;99.90;;;;;;4990089;28;20044;-94
2022/12/27 13:43:26;;;;;;;7.30;1.85;;;7.50;99.90;;;;;;4920802;29;20099;-93
2022/12/27 13:46:41;;;;;;;7.82;2.28;;;7.40;99.90;;;;;;4982960;28;20035;-93
2022/12/27 13:49:18;;;;;;;10.45;2.65;;;7.40;99.90;;;;;;4972249;28;20043;-93
2022/12/27 13:51:50;;;;;;;8.82;2.33;;;7.30;99.90;;;;;;5023205;28;20056;-94
2022/12/27 13:54:49;;;;;;;9.27;2.15;;;7.30;99.90;;;;;;4997563;28;20039;-94
2022/12/27 13:57:52;;;;;;;5.78;2.08;;;7.30;99.90;;;;;;4980127;28;20052;-94
2022/12/27 14:00:20;;;;;;;8.07;2.13;;;7.30;99.90;;;;;;4956704;28;20034;-93
2022/12/27 14:02:54;;;;;;;10.07;2.45;;;7.20;99.90;;;;;;4965279;28;20038;-93
2022/12/27 14:05:47;;;;;;;10.02;2.40;;;7.30;99.90;;;;;;4987550;28;20098;-94
2022/12/27 14:08:37;;;;;;;8.50;1.80;;;7.30;99.90;;;;;;4984137;28;20100;-93
2022/12/27 14:11:30;;;;;;;5.80;1.38;;;7.30;99.90;;;;;;4988116;28;20045;-93
2022/12/27 14:13:57;;;;;;;9.18;1.75;;;7.30;99.90;;;;;;5003469;28;20034;-95
2022/12/27 14:16:52;;;;;;;6.18;1.60;;;7.30;99.90;;;;;;4974559;28;20319;-95
2022/12/27 14:19:36;;;;;;;12.65;2.17;;;7.30;99.90;;;;;;4975137;28;20037;-94
2022/12/27 14:22:02;;;;;;;10.48;2.15;;;7.30;99.90;;;;;;5010884;28;20022;-93
2022/12/27 14:24:52;;;;;;;8.55;1.80;;;7.30;99.90;;;;;;4989119;28;20398;-94
2022/12/27 14:28:03;;;;;;;10.45;1.83;;;7.30;99.90;;;;;;5008059;28;20057;-93
2022/12/27 14:31:20;;;;;;;5.15;1.20;;;7.30;99.90;;;;;;4980200;28;20076;-95
2022/12/27 14:34:25;;;;;;;12.15;2.33;;;7.30;99.90;;;;;;4988651;28;20224;-93
2022/12/27 14:37:22;;;;;;;5.10;1.30;;;7.20;99.90;;;;;;4993356;28;20098;-94
2022/12/27 14:40:26;;;;;;;6.30;1.20;;;7.20;99.90;;;;;;4989335;28;20283;-95
2022/12/27 14:43:10;;;;;;;;;;;7.20;99.90;;;;;;4992326;28;20049;-94
2022/12/27 14:45:59;;;;;;;6.25;1.65;;;7.20;99.90;;;;;;5007965;28;20381;-95
2022/12/27 14:48:36;;;;;;;6.47;1.65;;;7.20;99.90;;;;;;5009422;28;20103;-95
2022/12/27 14:51:50;;;;;;;5.90;1.48;;;7.20;99.90;;;;;;4989171;28;20044;-94
2022/12/27 14:54:50;;;;;;;5.30;1.98;;;7.20;99.90;;;;;;4985026;28;20042;-95
2022/12/27 14:57:47;;;;;;;9.15;1.33;;;7.20;99.90;;;;;;5011707;28;20027;-93
2022/12/27 15:00:28;;;;;;;7.28;1.40;;;7.10;99.90;;;;;;4984268;28;20090;-96
2022/12/27 15:02:56;;;;;;;4.13;1.35;;;7.10;99.90;;;;;;4998194;28;20050;-95
2022/12/27 15:05:46;;;;;;;6.35;1.48;;;7.20;99.90;;;;;;4990232;28;20037;-95
2022/12/27 15:08:39;;;;;;;8.70;1.60;;;7.20;99.90;;;;;;5015113;28;20039;-96